Time;durP1;ratioP1;P1;durP2;ratioP2;P2;SDS_P1;SDS_P2;PMS_P1;PMS_P2;Temp;Humidity;BMP_temperature;BMP_pressure;BME280_temperature;BME280_humidity;BME280_pressure;Samples;Min_cycle;Max_cycle;Signal;HPM_P1;HPM_P2
2023/09/02 00:00:56;;;;;;;0.80;0.80;;;;;;;;;;5118259;28;20203;-63
2023/09/02 00:03:24;;;;;;;0.60;0.60;;;;;;;;;;5118428;28;20198;-63
2023/09/02 00:05:51;;;;;;;1.15;0.60;;;;;;;;;;5117998;28;20578;-63
2023/09/02 00:08:19;;;;;;;2.75;1.00;;;;;;;;;;5118295;28;20203;-63
2023/09/02 00:10:46;;;;;;;0.80;0.80;;;;;;;;;;5118562;28;20203;-63
2023/09/02 00:13:15;;;;;;;1.00;0.85;;;;;;;;;;5117792;28;20604;-63
2023/09/02 00:15:43;;;;;;;1.58;0.90;;;;;;;;;;5118317;28;20210;-63
2023/09/02 00:18:11;;;;;;;0.80;0.80;;;;;;;;;;5118097;28;20207;-63
2023/09/02 00:20:38;;;;;;;1.98;0.90;;;;;;;;;;5118017;28;20203;-63
2023/09/02 00:23:06;;;;;;;0.80;0.80;;;;;;;;;;5117897;28;20237;-63
2023/09/02 00:25:33;;;;;;;0.90;0.90;;;;;;;;;;5117474;28;20268;-63
2023/09/02 00:28:01;;;;;;;1.00;0.70;;;;;;;;;;5118010;28;20253;-63
2023/09/02 00:30:30;;;;;;;1.45;1.00;;;;;;;;;;5117774;28;20231;-63
2023/09/02 00:32:57;;;;;;;1.40;0.73;;;;;;;;;;5117660;28;20234;-63
2023/09/02 00:35:25;;;;;;;1.23;0.88;;;;;;;;;;5117851;28;20210;-63
2023/09/02 00:37:52;;;;;;;0.77;0.77;;;;;;;;;;5117913;28;20203;-63
2023/09/02 00:40:21;;;;;;;0.75;0.70;;;;;;;;;;5117583;28;20210;-63
2023/09/02 00:42:49;;;;;;;0.95;0.80;;;;;;;;;;5117807;28;20219;-63
2023/09/02 00:45:21;;;;;;;0.75;0.70;;;;;;;;;;5117700;28;20203;-63
2023/09/02 00:47:50;;;;;;;0.88;0.80;;;;;;;;;;5117554;28;20222;-63
2023/09/02 00:50:18;;;;;;;0.80;0.80;;;;;;;;;;5117853;28;20206;-63
2023/09/02 00:52:45;;;;;;;1.50;0.80;;;;;;;;;;5117665;28;20207;-63
2023/09/02 00:55:13;;;;;;;0.85;0.85;;;;;;;;;;5117255;28;20202;-63
2023/09/02 00:57:41;;;;;;;1.00;0.90;;;;;;;;;;5118940;28;20566;-63
2023/09/02 01:00:09;;;;;;;0.70;0.70;;;;;;;;;;5122108;28;20281;-63
2023/09/02 01:02:38;;;;;;;0.93;0.70;;;;;;;;;;5121634;28;20252;-63
2023/09/02 01:05:08;;;;;;;0.80;0.80;;;;;;;;;;5121487;28;20213;-63
2023/09/02 01:07:36;;;;;;;0.80;0.80;;;;;;;;;;5121628;28;20217;-63
2023/09/02 01:10:04;;;;;;;0.98;0.80;;;;;;;;;;5121974;28;20533;-63
2023/09/02 01:12:32;;;;;;;0.90;0.85;;;;;;;;;;5121314;28;20231;-63
2023/09/02 01:15:00;;;;;;;0.95;0.90;;;;;;;;;;5121459;28;20242;-63
2023/09/02 01:17:27;;;;;;;1.23;0.80;;;;;;;;;;5122046;28;20648;-63
2023/09/02 01:19:57;;;;;;;1.05;0.85;;;;;;;;;;5121083;28;20210;-63
2023/09/02 01:22:43;;;;;;;0.80;0.80;;;;;;;;;;5121185;28;20229;-63
2023/09/02 01:25:20;;;;;;;1.33;0.70;;;;;;;;;;5121210;28;20214;-63
2023/09/02 01:27:51;;;;;;;0.63;0.60;;;;;;;;;;5121497;28;20209;-63
2023/09/02 01:30:20;;;;;;;1.40;0.80;;;;;;;;;;5121417;28;20488;-63
2023/09/02 01:32:49;;;;;;;0.80;0.80;;;;;;;;;;5121577;28;20283;-63
2023/09/02 01:35:18;;;;;;;0.70;0.70;;;;;;;;;;5121317;28;20268;-63
2023/09/02 01:37:48;;;;;;;0.95;0.65;;;;;;;;;;5121360;28;20203;-63
2023/09/02 01:40:21;;;;;;;0.68;0.65;;;;;;;;;;5121503;28;20206;-63
2023/09/02 01:42:51;;;;;;;0.90;0.70;;;;;;;;;;5121008;28;20233;-63
2023/09/02 01:45:19;;;;;;;0.90;0.73;;;;;;;;;;5121581;28;20205;-63
2023/09/02 01:47:47;;;;;;;0.85;0.70;;;;;;;;;;5121171;28;20267;-63
2023/09/02 01:50:16;;;;;;;0.73;0.70;;;;;;;;;;5120973;28;20202;-63
2023/09/02 01:52:44;;;;;;;0.80;0.80;;;;;;;;;;5121154;28;20571;-63
2023/09/02 01:55:12;;;;;;;1.92;0.60;;;;;;;;;;5120971;28;20252;-63
2023/09/02 01:57:40;;;;;;;0.52;0.50;;;;;;;;;;5120592;28;20207;-63
2023/09/02 02:00:10;;;;;;;0.80;0.80;;;;;;;;;;5120927;28;20203;-63
2023/09/02 02:02:38;;;;;;;0.65;0.65;;;;;;;;;;5120541;28;20253;-63
2023/09/02 02:05:07;;;;;;;0.50;0.50;;;;;;;;;;5120893;28;20213;-63
2023/09/02 02:07:37;;;;;;;0.70;0.70;;;;;;;;;;5120642;28;20246;-63
2023/09/02 02:10:06;;;;;;;0.85;0.63;;;;;;;;;;5120726;28;20203;-63
2023/09/02 02:12:34;;;;;;;0.70;0.50;;;;;;;;;;5120453;28;20234;-63
2023/09/02 02:15:01;;;;;;;0.90;0.60;;;;;;;;;;5120630;28;20264;-63
2023/09/02 02:17:31;;;;;;;0.60;0.60;;;;;;;;;;5120747;28;20217;-63
2023/09/02 02:19:59;;;;;;;0.70;0.70;;;;;;;;;;5120471;28;20203;-63
2023/09/02 02:22:26;;;;;;;0.60;0.52;;;;;;;;;;5120394;28;20568;-63
2023/09/02 02:24:53;;;;;;;0.70;0.70;;;;;;;;;;5120864;28;20207;-63
2023/09/02 02:27:22;;;;;;;0.60;0.60;;;;;;;;;;5120372;28;20245;-63
2023/09/02 02:29:49;;;;;;;0.60;0.60;;;;;;;;;;5120230;28;20267;-63
2023/09/02 02:32:17;;;;;;;0.65;0.65;;;;;;;;;;5120159;28;20207;-63
2023/09/02 02:34:46;;;;;;;0.60;0.60;;;;;;;;;;5120493;28;20207;-63
2023/09/02 02:37:13;;;;;;;0.73;0.73;;;;;;;;;;5120190;28;20256;-63
2023/09/02 02:39:41;;;;;;;0.68;0.60;;;;;;;;;;5120411;28;20285;-63
2023/09/02 02:42:09;;;;;;;0.60;0.60;;;;;;;;;;5119777;28;20319;-63
2023/09/02 02:44:36;;;;;;;0.73;0.60;;;;;;;;;;5120078;28;20268;-63
2023/09/02 02:47:05;;;;;;;1.05;0.55;;;;;;;;;;5119918;28;20207;-63
2023/09/02 02:49:33;;;;;;;0.70;0.70;;;;;;;;;;5119828;28;20203;-63
2023/09/02 02:52:01;;;;;;;0.60;0.60;;;;;;;;;;5119988;28;20199;-63
2023/09/02 02:54:29;;;;;;;0.85;0.60;;;;;;;;;;5120335;28;20519;-63
2023/09/02 02:56:56;;;;;;;0.60;0.60;;;;;;;;;;5119997;28;20546;-63
2023/09/02 02:59:24;;;;;;;0.73;0.68;;;;;;;;;;5119553;28;20207;-63
2023/09/02 03:01:52;;;;;;;0.98;0.45;;;;;;;;;;5119015;28;20485;-63
2023/09/02 03:04:19;;;;;;;0.70;0.50;;;;;;;;;;5119508;28;20548;-63
2023/09/02 03:06:47;;;;;;;1.05;0.60;;;;;;;;;;5119608;28;20203;-64
2023/09/02 03:09:16;;;;;;;0.90;0.80;;;;;;;;;;5119323;28;20207;-63
2023/09/02 03:11:44;;;;;;;0.80;0.65;;;;;;;;;;5118911;28;20253;-63
2023/09/02 03:14:11;;;;;;;0.80;0.60;;;;;;;;;;5119478;28;20203;-63
2023/09/02 03:16:39;;;;;;;1.02;0.80;;;;;;;;;;5119104;28;20218;-63
2023/09/02 03:19:06;;;;;;;1.02;0.75;;;;;;;;;;5119311;28;20209;-63
2023/09/02 03:21:34;;;;;;;1.63;0.70;;;;;;;;;;5118950;28;20207;-63
2023/09/02 03:24:01;;;;;;;0.80;0.80;;;;;;;;;;5119004;28;20227;-63
2023/09/02 03:26:30;;;;;;;0.60;0.60;;;;;;;;;;5119232;28;20264;-63
2023/09/02 03:28:59;;;;;;;0.63;0.63;;;;;;;;;;5118910;28;20293;-63
2023/09/02 03:31:26;;;;;;;0.80;0.80;;;;;;;;;;5119121;28;20298;-63
2023/09/02 03:33:54;;;;;;;0.63;0.63;;;;;;;;;;5118745;28;20508;-63
2023/09/02 03:36:21;;;;;;;0.60;0.60;;;;;;;;;;5118724;28;20238;-63
2023/09/02 03:38:49;;;;;;;0.60;0.60;;;;;;;;;;5118811;28;20203;-63
2023/09/02 03:41:19;;;;;;;0.80;0.80;;;;;;;;;;5118831;28;20279;-63
2023/09/02 03:43:48;;;;;;;0.80;0.70;;;;;;;;;;5118776;28;20248;-63
2023/09/02 03:46:15;;;;;;;0.60;0.60;;;;;;;;;;5118981;28;20207;-63
2023/09/02 03:48:43;;;;;;;0.70;0.70;;;;;;;;;;5118328;28;20263;-63
2023/09/02 03:51:12;;;;;;;0.63;0.63;;;;;;;;;;5118826;28;20538;-63
2023/09/02 03:53:40;;;;;;;0.57;0.57;;;;;;;;;;5118436;28;20202;-63
2023/09/02 03:56:08;;;;;;;0.60;0.60;;;;;;;;;;5118396;28;20289;-63
2023/09/02 03:58:36;;;;;;;0.80;0.80;;;;;;;;;;5118553;28;20638;-63
2023/09/02 04:01:04;;;;;;;1.40;0.70;;;;;;;;;;5118416;28;20203;-63
2023/09/02 04:03:35;;;;;;;0.93;0.80;;;;;;;;;;5118152;28;20223;-63
2023/09/02 04:06:02;;;;;;;0.70;0.70;;;;;;;;;;5118255;28;20214;-63
2023/09/02 04:08:33;;;;;;;1.15;0.80;;;;;;;;;;5118251;28;20213;-63
2023/09/02 04:11:01;;;;;;;1.33;0.68;;;;;;;;;;5118527;28;20334;-63
2023/09/02 04:13:29;;;;;;;1.20;0.65;;;;;;;;;;5118164;28;20615;-63
2023/09/02 04:15:56;;;;;;;0.60;0.60;;;;;;;;;;5118113;28;20210;-63
2023/09/02 04:18:25;;;;;;;0.57;0.50;;;;;;;;;;5118294;28;20497;-63
2023/09/02 04:20:52;;;;;;;0.60;0.52;;;;;;;;;;5117761;28;20217;-63
2023/09/02 04:23:21;;;;;;;0.70;0.70;;;;;;;;;;5117566;28;20223;-63
2023/09/02 04:25:49;;;;;;;0.60;0.60;;;;;;;;;;5117829;28;20202;-63
2023/09/02 04:28:17;;;;;;;0.52;0.52;;;;;;;;;;5117820;28;20203;-63
2023/09/02 04:30:45;;;;;;;1.02;0.50;;;;;;;;;;5117932;28;20210;-63
2023/09/02 04:33:12;;;;;;;0.63;0.63;;;;;;;;;;5116986;28;20407;-63
2023/09/02 04:35:43;;;;;;;0.75;0.60;;;;;;;;;;5117961;28;20210;-63
2023/09/02 04:38:11;;;;;;;0.70;0.60;;;;;;;;;;5117868;28;20589;-63
2023/09/02 04:40:38;;;;;;;0.60;0.60;;;;;;;;;;5118248;28;20488;-63
2023/09/02 04:43:06;;;;;;;0.65;0.60;;;;;;;;;;5117811;28;20261;-63
2023/09/02 04:45:33;;;;;;;0.70;0.70;;;;;;;;;;5117994;28;20477;-63
2023/09/02 04:48:01;;;;;;;1.20;0.60;;;;;;;;;;5117807;28;20211;-63
2023/09/02 04:50:29;;;;;;;1.10;1.02;;;;;;;;;;5117596;28;20203;-63
2023/09/02 04:52:58;;;;;;;0.70;0.70;;;;;;;;;;5117842;28;20298;-63
2023/09/02 04:55:26;;;;;;;1.20;0.73;;;;;;;;;;5117825;28;20203;-63
2023/09/02 04:57:53;;;;;;;0.80;0.80;;;;;;;;;;5117631;28;20206;-63
2023/09/02 05:00:21;;;;;;;1.13;0.75;;;;;;;;;;5117468;28;20215;-63
2023/09/02 05:02:49;;;;;;;0.80;0.80;;;;;;;;;;5117561;28;20230;-63
2023/09/02 05:05:17;;;;;;;0.80;0.77;;;;;;;;;;5118108;28;20686;-63
2023/09/02 05:07:45;;;;;;;1.17;0.70;;;;;;;;;;5117639;28;20195;-63
2023/09/02 05:10:14;;;;;;;0.70;0.70;;;;;;;;;;5117564;28;20214;-63
2023/09/02 05:12:41;;;;;;;0.88;0.60;;;;;;;;;;5117675;28;20518;-63
2023/09/02 05:15:09;;;;;;;0.73;0.73;;;;;;;;;;5117557;28;20202;-63
2023/09/02 05:17:37;;;;;;;1.40;0.82;;;;;;;;;;5117526;28;20508;-63
2023/09/02 05:20:05;;;;;;;0.60;0.60;;;;;;;;;;5117103;28;20610;-63
2023/09/02 05:22:33;;;;;;;0.70;0.70;;;;;;;;;;5117059;28;20203;-63
2023/09/02 05:25:01;;;;;;;0.90;0.90;;;;;;;;;;5116992;28;20202;-63
2023/09/02 05:27:29;;;;;;;0.73;0.73;;;;;;;;;;5116878;28;20249;-63
2023/09/02 05:29:57;;;;;;;0.98;0.85;;;;;;;;;;5116962;28;20206;-63
2023/09/02 05:32:25;;;;;;;0.70;0.60;;;;;;;;;;5116922;28;20263;-63
2023/09/02 05:34:52;;;;;;;1.58;0.82;;;;;;;;;;5117246;28;20478;-63
2023/09/02 05:37:19;;;;;;;0.80;0.80;;;;;;;;;;5117357;28;20203;-63
2023/09/02 05:39:47;;;;;;;1.00;1.00;;;;;;;;;;5116883;28;20242;-63
2023/09/02 05:42:14;;;;;;;0.98;0.55;;;;;;;;;;5116820;28;20268;-63
2023/09/02 05:44:43;;;;;;;0.80;0.80;;;;;;;;;;5119312;28;20233;-63
2023/09/02 05:47:11;;;;;;;0.80;0.80;;;;;;;;;;5121088;28;20214;-63
2023/09/02 05:49:38;;;;;;;0.70;0.70;;;;;;;;;;5120861;28;20195;-63
2023/09/02 05:52:06;;;;;;;0.82;0.80;;;;;;;;;;5121155;28;20225;-63
2023/09/02 05:54:33;;;;;;;0.70;0.70;;;;;;;;;;5120261;28;20206;-63
2023/09/02 05:57:01;;;;;;;1.35;0.60;;;;;;;;;;5120486;28;20590;-63
2023/09/02 05:59:29;;;;;;;0.95;0.90;;;;;;;;;;5120989;28;20203;-63
2023/09/02 06:01:58;;;;;;;0.98;0.75;;;;;;;;;;5120460;28;20305;-63
2023/09/02 06:04:25;;;;;;;0.70;0.70;;;;;;;;;;5120610;28;20241;-63
2023/09/02 06:06:53;;;;;;;0.63;0.63;;;;;;;;;;5120786;28;20203;-63
2023/09/02 06:09:20;;;;;;;0.63;0.63;;;;;;;;;;5120105;28;20203;-63
2023/09/02 06:11:47;;;;;;;0.70;0.70;;;;;;;;;;5119636;28;20242;-63
2023/09/02 06:14:15;;;;;;;0.73;0.73;;;;;;;;;;5119995;28;20199;-63
2023/09/02 06:16:42;;;;;;;0.85;0.70;;;;;;;;;;5119826;28;20202;-63
2023/09/02 06:19:11;;;;;;;0.63;0.63;;;;;;;;;;5119791;28;20218;-63
2023/09/02 06:21:38;;;;;;;0.88;0.82;;;;;;;;;;5119494;28;20320;-63
2023/09/02 06:24:07;;;;;;;0.80;0.80;;;;;;;;;;5119749;28;20219;-63
2023/09/02 06:26:34;;;;;;;0.70;0.70;;;;;;;;;;5119966;28;20211;-63
2023/09/02 06:29:01;;;;;;;0.82;0.57;;;;;;;;;;5120133;28;20207;-63
2023/09/02 06:31:29;;;;;;;0.70;0.70;;;;;;;;;;5119880;28;20229;-63
2023/09/02 06:33:56;;;;;;;0.60;0.57;;;;;;;;;;5119935;28;20644;-63
2023/09/02 06:36:25;;;;;;;0.80;0.68;;;;;;;;;;5119930;28;20202;-63
2023/09/02 06:38:52;;;;;;;0.70;0.70;;;;;;;;;;5119697;28;20207;-63
2023/09/02 06:41:20;;;;;;;0.55;0.55;;;;;;;;;;5119308;28;20203;-63
2023/09/02 06:43:47;;;;;;;0.70;0.70;;;;;;;;;;5119379;28;20226;-63
2023/09/02 06:46:16;;;;;;;0.63;0.63;;;;;;;;;;5119811;28;20203;-63
2023/09/02 06:48:43;;;;;;;0.77;0.60;;;;;;;;;;5119357;28;20662;-63
2023/09/02 06:51:11;;;;;;;0.82;0.60;;;;;;;;;;5119128;28;20252;-63
2023/09/02 06:53:40;;;;;;;0.60;0.60;;;;;;;;;;5119017;28;20210;-63
2023/09/02 06:56:08;;;;;;;1.40;0.80;;;;;;;;;;5117989;28;20563;-63
2023/09/02 06:58:36;;;;;;;0.60;0.60;;;;;;;;;;5118685;28;20215;-63
2023/09/02 07:01:03;;;;;;;0.52;0.52;;;;;;;;;;5118367;28;20202;-63
2023/09/02 07:03:31;;;;;;;1.35;0.52;;;;;;;;;;5118695;28;20234;-63
2023/09/02 07:06:05;;;;;;;0.82;0.60;;;;;;;;;;5119125;28;20203;-63
2023/09/02 07:08:32;;;;;;;0.60;0.60;;;;;;;;;;5119094;28;20542;-63
2023/09/02 07:11:01;;;;;;;0.55;0.50;;;;;;;;;;5118408;28;20221;-63
2023/09/02 07:13:28;;;;;;;0.60;0.57;;;;;;;;;;5117988;28;20235;-63
2023/09/02 07:15:59;;;;;;;1.20;0.60;;;;;;;;;;5118150;28;20209;-63
2023/09/02 07:18:27;;;;;;;0.55;0.50;;;;;;;;;;5117856;28;20203;-63
2023/09/02 07:20:59;;;;;;;0.50;0.50;;;;;;;;;;5118353;28;20203;-63
2023/09/02 07:23:27;;;;;;;0.60;0.60;;;;;;;;;;5118707;28;20223;-63
2023/09/02 07:25:54;;;;;;;0.40;0.40;;;;;;;;;;5117775;28;20195;-63
2023/09/02 07:28:23;;;;;;;0.52;0.52;;;;;;;;;;5118492;28;20207;-63
2023/09/02 07:30:50;;;;;;;0.55;0.43;;;;;;;;;;5118048;28;20741;-63
2023/09/02 07:33:18;;;;;;;0.43;0.40;;;;;;;;;;5118481;28;20203;-63
2023/09/02 07:35:45;;;;;;;0.47;0.47;;;;;;;;;;5118514;28;20210;-63
2023/09/02 07:38:13;;;;;;;0.50;0.50;;;;;;;;;;5117844;28;20510;-63
2023/09/02 07:40:41;;;;;;;0.45;0.45;;;;;;;;;;5117905;28;20213;-63
2023/09/02 07:43:08;;;;;;;0.77;0.60;;;;;;;;;;5117411;28;20244;-63
2023/09/02 07:45:37;;;;;;;0.40;0.40;;;;;;;;;;5118120;28;20235;-63
2023/09/02 07:48:05;;;;;;;2.20;0.55;;;;;;;;;;5117367;28;20497;-63
2023/09/02 07:50:32;;;;;;;0.68;0.50;;;;;;;;;;5117919;28;20210;-63
2023/09/02 07:53:00;;;;;;;0.68;0.52;;;;;;;;;;5118044;28;20203;-63
2023/09/02 07:55:27;;;;;;;0.57;0.50;;;;;;;;;;5117415;28;20209;-63
2023/09/02 07:57:54;;;;;;;0.50;0.50;;;;;;;;;;5117999;28;20203;-63
2023/09/02 08:00:22;;;;;;;0.43;0.43;;;;;;;;;;5117108;28;20222;-63
2023/09/02 08:02:51;;;;;;;1.23;0.45;;;;;;;;;;5117044;28;20205;-63
2023/09/02 08:05:18;;;;;;;0.73;0.43;;;;;;;;;;5117011;28;20226;-63
2023/09/02 08:07:46;;;;;;;0.60;0.50;;;;;;;;;;5117876;28;20207;-63
2023/09/02 08:10:13;;;;;;;0.50;0.50;;;;;;;;;;5116603;28;20214;-63
2023/09/02 08:12:42;;;;;;;0.80;0.40;;;;;;;;;;5117028;28;20249;-63
2023/09/02 08:15:11;;;;;;;0.55;0.43;;;;;;;;;;5116793;28;20234;-63
2023/09/02 08:17:38;;;;;;;0.55;0.50;;;;;;;;;;5116600;28;20203;-63
2023/09/02 08:20:08;;;;;;;0.40;0.40;;;;;;;;;;5116719;28;20209;-63
2023/09/02 08:22:36;;;;;;;1.13;0.40;;;;;;;;;;5116831;28;20203;-63
2023/09/02 08:25:04;;;;;;;0.40;0.40;;;;;;;;;;5116839;28;20641;-63
2023/09/02 08:27:32;;;;;;;0.30;0.30;;;;;;;;;;5116496;28;20195;-63
2023/09/02 08:29:59;;;;;;;0.60;0.50;;;;;;;;;;5116377;28;20231;-63
2023/09/02 08:32:26;;;;;;;0.40;0.40;;;;;;;;;;5116888;28;20203;-63
2023/09/02 08:34:54;;;;;;;0.60;0.40;;;;;;;;;;5117097;28;20265;-63
2023/09/02 08:37:22;;;;;;;0.30;0.30;;;;;;;;;;5116911;28;20207;-63
2023/09/02 08:39:51;;;;;;;0.88;0.60;;;;;;;;;;5116342;28;20206;-63
2023/09/02 08:42:19;;;;;;;1.10;0.50;;;;;;;;;;5116202;28;20209;-63
2023/09/02 08:44:47;;;;;;;0.40;0.40;;;;;;;;;;5116522;28;20223;-63
2023/09/02 08:47:15;;;;;;;0.40;0.40;;;;;;;;;;5116244;28;20199;-63
2023/09/02 08:49:42;;;;;;;1.17;0.38;;;;;;;;;;5116397;28;20206;-63
2023/09/02 08:52:10;;;;;;;0.40;0.40;;;;;;;;;;5116293;28;20229;-63
2023/09/02 08:54:40;;;;;;;0.40;0.40;;;;;;;;;;5115661;28;20796;-63
2023/09/02 08:57:10;;;;;;;0.30;0.30;;;;;;;;;;5116422;28;20214;-63
2023/09/02 08:59:38;;;;;;;0.43;0.43;;;;;;;;;;5115930;28;20571;-63
2023/09/02 09:02:06;;;;;;;1.33;0.40;;;;;;;;;;5116115;28;20203;-64
2023/09/02 09:04:34;;;;;;;0.50;0.50;;;;;;;;;;5114932;28;20490;-64
2023/09/02 09:07:04;;;;;;;0.50;0.50;;;;;;;;;;5115811;28;20256;-63
2023/09/02 09:09:33;;;;;;;0.50;0.50;;;;;;;;;;5115249;28;20203;-63
2023/09/02 09:12:02;;;;;;;0.50;0.50;;;;;;;;;;5115688;28;20235;-63
2023/09/02 09:14:31;;;;;;;0.50;0.47;;;;;;;;;;5116216;28;20207;-63
2023/09/02 09:17:00;;;;;;;0.40;0.40;;;;;;;;;;5116512;28;20578;-63
2023/09/02 09:19:28;;;;;;;1.13;0.50;;;;;;;;;;5118028;28;20206;-63
2023/09/02 09:21:57;;;;;;;0.43;0.40;;;;;;;;;;5120527;28;20471;-63
2023/09/02 09:24:26;;;;;;;0.43;0.40;;;;;;;;;;5119988;28;20236;-63
2023/09/02 09:26:53;;;;;;;0.50;0.50;;;;;;;;;;5120262;28;20298;-63
2023/09/02 09:29:22;;;;;;;0.73;0.52;;;;;;;;;;5120253;28;20203;-63
2023/09/02 09:31:49;;;;;;;0.50;0.40;;;;;;;;;;5119909;28;20203;-63
2023/09/02 09:34:17;;;;;;;0.50;0.50;;;;;;;;;;5119471;28;20199;-63
2023/09/02 09:36:45;;;;;;;1.15;0.50;;;;;;;;;;5119106;28;20610;-63
2023/09/02 09:39:12;;;;;;;0.57;0.57;;;;;;;;;;5119205;28;20642;-63
2023/09/02 09:41:46;;;;;;;0.40;0.40;;;;;;;;;;5119691;28;20214;-63
2023/09/02 09:44:15;;;;;;;0.47;0.47;;;;;;;;;;5119280;28;20272;-63
2023/09/02 09:46:51;;;;;;;0.45;0.40;;;;;;;;;;5119281;28;20206;-63
2023/09/02 09:49:24;;;;;;;0.65;0.50;;;;;;;;;;5118798;28;20198;-63
2023/09/02 09:51:52;;;;;;;0.40;0.40;;;;;;;;;;5119470;28;20195;-63
2023/09/02 09:54:19;;;;;;;0.43;0.40;;;;;;;;;;5119465;28;20199;-63
2023/09/02 09:56:46;;;;;;;0.55;0.55;;;;;;;;;;5119506;28;20202;-63
2023/09/02 09:59:14;;;;;;;0.70;0.50;;;;;;;;;;5119584;28;20209;-63
2023/09/02 10:01:49;;;;;;;0.50;0.45;;;;;;;;;;5118682;28;20307;-63
2023/09/02 10:04:17;;;;;;;0.40;0.40;;;;;;;;;;5118901;28;20229;-63
2023/09/02 10:06:47;;;;;;;0.40;0.40;;;;;;;;;;5119161;28;20198;-63
2023/09/02 10:09:14;;;;;;;0.40;0.40;;;;;;;;;;5119078;28;20598;-63
2023/09/02 10:11:43;;;;;;;1.02;0.40;;;;;;;;;;5118581;28;20238;-63
2023/09/02 10:14:11;;;;;;;0.40;0.40;;;;;;;;;;5118859;28;20478;-63
2023/09/02 10:16:39;;;;;;;0.50;0.50;;;;;;;;;;5118687;28;20206;-63
2023/09/02 10:19:07;;;;;;;0.50;0.32;;;;;;;;;;5118990;28;20284;-63
2023/09/02 10:21:36;;;;;;;0.82;0.50;;;;;;;;;;5118879;28;20577;-64
2023/09/02 10:24:05;;;;;;;0.40;0.40;;;;;;;;;;5118508;28;20213;-63
2023/09/02 10:26:37;;;;;;;0.40;0.40;;;;;;;;;;5119273;28;20203;-63
2023/09/02 10:29:08;;;;;;;0.50;0.45;;;;;;;;;;5118042;28;20210;-63
2023/09/02 10:31:39;;;;;;;0.30;0.30;;;;;;;;;;5116658;28;20210;-63
2023/09/02 10:34:11;;;;;;;0.50;0.50;;;;;;;;;;5117942;28;20207;-63
2023/09/02 10:36:41;;;;;;;0.40;0.38;;;;;;;;;;5118672;28;20199;-63
2023/09/02 10:39:11;;;;;;;0.40;0.40;;;;;;;;;;5118893;28;20203;-63
2023/09/02 10:41:40;;;;;;;0.50;0.50;;;;;;;;;;5118103;28;20203;-63
2023/09/02 10:44:08;;;;;;;0.35;0.35;;;;;;;;;;5118023;28;20203;-63
2023/09/02 10:46:35;;;;;;;0.50;0.50;;;;;;;;;;5118211;28;20605;-63
2023/09/02 10:49:02;;;;;;;0.52;0.43;;;;;;;;;;5118277;28;20203;-63
2023/09/02 10:51:30;;;;;;;1.02;0.40;;;;;;;;;;5117816;28;20211;-63
2023/09/02 10:54:02;;;;;;;0.47;0.47;;;;;;;;;;5118567;28;20515;-63
2023/09/02 10:56:31;;;;;;;0.30;0.30;;;;;;;;;;5118269;28;20560;-63
2023/09/02 10:58:59;;;;;;;0.50;0.50;;;;;;;;;;5118004;28;20271;-63
2023/09/02 11:01:29;;;;;;;0.40;0.40;;;;;;;;;;5117619;28;20207;-63
2023/09/02 11:03:56;;;;;;;0.40;0.40;;;;;;;;;;5118390;28;20476;-63
2023/09/02 11:06:24;;;;;;;0.30;0.30;;;;;;;;;;5118197;28;20249;-63
2023/09/02 11:08:52;;;;;;;0.30;0.30;;;;;;;;;;5118267;28;20578;-63
2023/09/02 11:11:21;;;;;;;0.47;0.40;;;;;;;;;;5117474;28;20574;-63
2023/09/02 11:14:05;;;;;;;0.40;0.40;;;;;;;;;;5118413;28;20562;-63
2023/09/02 11:16:33;;;;;;;0.50;0.50;;;;;;;;;;5117716;28;20195;-63
2023/09/02 11:19:01;;;;;;;1.02;0.55;;;;;;;;;;5117482;28;20199;-63
2023/09/02 11:21:38;;;;;;;0.47;0.45;;;;;;;;;;5117713;28;20202;-63
2023/09/02 11:24:15;;;;;;;1.50;0.40;;;;;;;;;;5116938;28;20832;-63
2023/09/02 11:26:54;;;;;;;1.17;0.52;;;;;;;;;;5116493;28;20744;-63
2023/09/02 11:29:25;;;;;;;1.13;0.32;;;;;;;;;;5116214;28;20195;-63
2023/09/02 11:31:56;;;;;;;1.67;0.57;;;;;;;;;;5116997;28;20204;-63
2023/09/02 11:34:23;;;;;;;0.98;0.50;;;;;;;;;;5116434;28;20652;-63
2023/09/02 11:36:51;;;;;;;2.28;0.65;;;;;;;;;;5116523;28;20714;-64
2023/09/02 11:39:19;;;;;;;0.82;0.50;;;;;;;;;;5116572;28;20203;-63
2023/09/02 11:41:46;;;;;;;1.88;0.60;;;;;;;;;;5116344;28;20256;-64
2023/09/02 11:44:16;;;;;;;1.90;0.70;;;;;;;;;;5116811;28;20199;-63
2023/09/02 11:46:44;;;;;;;1.40;0.63;;;;;;;;;;5116365;28;20226;-63
2023/09/02 11:49:14;;;;;;;1.70;0.52;;;;;;;;;;5117156;28;20229;-63
2023/09/02 11:51:42;;;;;;;3.33;0.60;;;;;;;;;;5116748;28;20474;-64
2023/09/02 11:54:09;;;;;;;3.00;0.82;;;;;;;;;;5116995;28;20202;-64
2023/09/02 11:56:37;;;;;;;2.10;0.90;;;;;;;;;;5117062;28;20209;-64
2023/09/02 11:59:04;;;;;;;4.70;0.73;;;;;;;;;;5116546;28;20199;-64
2023/09/02 12:01:33;;;;;;;2.03;0.77;;;;;;;;;;5115993;28;20605;-64
2023/09/02 12:04:00;;;;;;;1.95;0.68;;;;;;;;;;5116089;28;20214;-64
2023/09/02 12:06:30;;;;;;;3.70;0.75;;;;;;;;;;5116044;28;20230;-64
2023/09/02 12:08:58;;;;;;;1.88;0.47;;;;;;;;;;5116724;28;20203;-64
2023/09/02 12:11:25;;;;;;;1.40;0.70;;;;;;;;;;5115432;28;20199;-63
2023/09/02 12:13:52;;;;;;;2.47;0.73;;;;;;;;;;5116475;28;20198;-64
2023/09/02 12:16:20;;;;;;;2.78;0.60;;;;;;;;;;5115832;28;20195;-63
2023/09/02 12:18:49;;;;;;;1.67;0.60;;;;;;;;;;5115598;28;20601;-63
2023/09/02 12:21:18;;;;;;;1.85;0.60;;;;;;;;;;5114646;28;20587;-63
2023/09/02 12:23:45;;;;;;;1.27;0.60;;;;;;;;;;5115573;28;20195;-64
2023/09/02 12:26:13;;;;;;;1.63;0.70;;;;;;;;;;5115268;28;20233;-64
2023/09/02 12:28:49;;;;;;;0.68;0.43;;;;;;;;;;5115521;28;20203;-63
2023/09/02 12:31:18;;;;;;;3.53;0.65;;;;;;;;;;5115951;28;20520;-63
2023/09/02 12:33:51;;;;;;;0.90;0.60;;;;;;;;;;5114865;28;20600;-63
2023/09/02 12:36:19;;;;;;;2.20;0.60;;;;;;;;;;5116005;28;20264;-63
2023/09/02 12:38:50;;;;;;;2.15;0.60;;;;;;;;;;5115776;28;20514;-63
2023/09/02 12:41:17;;;;;;;1.50;0.50;;;;;;;;;;5115747;28;20213;-63
2023/09/02 12:43:45;;;;;;;0.82;0.50;;;;;;;;;;5115817;28;20195;-64
2023/09/02 12:46:18;;;;;;;0.93;0.70;;;;;;;;;;5115152;28;20237;-64
2023/09/02 12:48:47;;;;;;;1.10;0.60;;;;;;;;;;5115750;28;20228;-63
2023/09/02 12:51:27;;;;;;;0.55;0.40;;;;;;;;;;5115488;28;20263;-63
2023/09/02 12:53:54;;;;;;;0.57;0.52;;;;;;;;;;5114136;28;20210;-63
2023/09/02 12:56:21;;;;;;;1.90;0.68;;;;;;;;;;5115403;28;20199;-63
2023/09/02 12:58:49;;;;;;;0.88;0.50;;;;;;;;;;5115166;28;20228;-63
2023/09/02 13:01:16;;;;;;;0.82;0.60;;;;;;;;;;5115363;28;20593;-63
2023/09/02 13:03:44;;;;;;;1.85;0.77;;;;;;;;;;5114670;28;20195;-63
2023/09/02 13:06:11;;;;;;;0.75;0.50;;;;;;;;;;5114978;28;20226;-63
2023/09/02 13:08:42;;;;;;;1.17;0.70;;;;;;;;;;5115237;28;20575;-63
2023/09/02 13:11:09;;;;;;;1.00;0.50;;;;;;;;;;5114651;28;20213;-63
2023/09/02 13:13:36;;;;;;;0.90;0.70;;;;;;;;;;5114884;28;20226;-63
2023/09/02 13:16:04;;;;;;;1.30;0.70;;;;;;;;;;5114920;28;20662;-64
2023/09/02 13:18:31;;;;;;;0.68;0.60;;;;;;;;;;5113274;28;20199;-63
2023/09/02 13:21:00;;;;;;;1.23;0.82;;;;;;;;;;5114291;28;20317;-63
2023/09/02 13:23:28;;;;;;;1.02;0.70;;;;;;;;;;5114710;28;20201;-64
2023/09/02 13:25:57;;;;;;;1.20;0.70;;;;;;;;;;5115226;28;20834;-64
2023/09/02 13:28:27;;;;;;;1.60;0.75;;;;;;;;;;5115420;28;20195;-63
2023/09/02 13:30:55;;;;;;;1.30;0.70;;;;;;;;;;5113825;28;20722;-63
2023/09/02 13:33:22;;;;;;;1.77;0.75;;;;;;;;;;5114556;28;20195;-63
2023/09/02 13:35:50;;;;;;;1.40;0.60;;;;;;;;;;5114182;28;20458;-63
2023/09/02 13:38:26;;;;;;;2.60;0.60;;;;;;;;;;5115634;28;20213;-63
2023/09/02 13:40:53;;;;;;;0.90;0.70;;;;;;;;;;5115449;28;20209;-63
2023/09/02 13:43:24;;;;;;;2.15;0.70;;;;;;;;;;5115330;28;20198;-63
2023/09/02 13:45:51;;;;;;;1.48;0.50;;;;;;;;;;5115127;28;20226;-63
2023/09/02 13:48:19;;;;;;;2.80;0.80;;;;;;;;;;5114566;28;20201;-63
2023/09/02 13:50:47;;;;;;;1.95;0.60;;;;;;;;;;5114474;28;20202;-63
2023/09/02 13:53:17;;;;;;;2.55;0.80;;;;;;;;;;5114638;28;20310;-64
2023/09/02 13:55:45;;;;;;;1.17;0.70;;;;;;;;;;5114664;28;20206;-64
2023/09/02 13:58:16;;;;;;;1.92;0.80;;;;;;;;;;5114160;28;20606;-63
2023/09/02 14:00:46;;;;;;;1.65;0.70;;;;;;;;;;5114917;28;20225;-64
2023/09/02 14:03:17;;;;;;;2.80;1.00;;;;;;;;;;5114900;28;20454;-63
2023/09/02 14:05:46;;;;;;;0.90;0.70;;;;;;;;;;5117126;28;20226;-63
2023/09/02 14:08:17;;;;;;;1.95;0.80;;;;;;;;;;5118502;28;20226;-63
2023/09/02 14:10:45;;;;;;;1.15;0.85;;;;;;;;;;5117419;28;20198;-63
2023/09/02 14:13:12;;;;;;;1.83;0.95;;;;;;;;;;5117805;28;20664;-63
2023/09/02 14:15:40;;;;;;;1.85;0.70;;;;;;;;;;5118067;28;20191;-63
2023/09/02 14:18:09;;;;;;;0.60;0.60;;;;;;;;;;5118317;28;20282;-63
2023/09/02 14:20:36;;;;;;;1.02;0.80;;;;;;;;;;5115926;28;20203;-63
2023/09/02 14:23:04;;;;;;;0.93;0.82;;;;;;;;;;5117692;28;20590;-63
2023/09/02 14:25:31;;;;;;;0.80;0.80;;;;;;;;;;5117876;28;20241;-63
2023/09/02 14:27:58;;;;;;;1.00;0.80;;;;;;;;;;5118563;28;20252;-64
2023/09/02 14:30:26;;;;;;;0.80;0.60;;;;;;;;;;5117580;28;20202;-64
2023/09/02 14:32:53;;;;;;;0.90;0.70;;;;;;;;;;5118115;28;20213;-64
2023/09/02 14:35:22;;;;;;;1.50;0.80;;;;;;;;;;5117723;28;20285;-64
2023/09/02 14:37:50;;;;;;;1.65;0.80;;;;;;;;;;5117835;28;20203;-64
2023/09/02 14:40:17;;;;;;;1.80;0.73;;;;;;;;;;5117327;28;20214;-64
2023/09/02 14:42:44;;;;;;;0.95;0.60;;;;;;;;;;5117920;28;20265;-64
2023/09/02 14:45:12;;;;;;;0.77;0.70;;;;;;;;;;5117271;28;20203;-64
2023/09/02 14:47:39;;;;;;;1.13;0.65;;;;;;;;;;5117658;28;20223;-64
2023/09/02 14:50:07;;;;;;;1.48;0.65;;;;;;;;;;5117955;28;20195;-63